Date,TemperatureHighF,TemperatureAvgF,TemperatureLowF,DewpointHighF,DewpointAvgF,DewpointLowF,HumidityHigh,HumidityAvg,HumidityLow,PressureMaxIn,PressureMinIn,WindSpeedMaxMPH,WindSpeedAvgMPH,GustSpeedMaxMPH,PrecipitationSumIn
2013-10-1,77.3,60.8,46.3,39.3,35.7,31.1,67,42,19,30.10,29.95,17,6,20,0.00
2013-10-2,77.0,62.5,47.5,37.5,33.6,25.6,61,37,17,30.06,29.87,16,6,22,0.00
2013-10-3,71.7,57.3,36.5,36.0,33.2,25.8,92,45,24,30.04,29.68,21,6,38,0.41
2013-10-4,43.4,37.3,32.2,36.2,31.2,25.7,96,80,56,30.38,30.03,11,3,22,0.34
2013-10-5,53.5,42.5,34.0,30.9,27.7,24.8,80,58,34,30.46,30.37,12,4,17,0.00
2013-10-6,60.7,46.1,34.0,38.8,32.4,27.6,79,61,34,30.49,30.31,12,5,15,0.00
2013-10-7,66.2,51.7,38.9,39.8,36.5,33.2,81,59,34,30.33,30.07,14,6,18,0.00
2013-10-8,73.9,58.2,44.3,40.4,34.2,25.4,74,45,19,30.06,29.81,24,8,32,0.00
2013-10-9,69.9,58.3,46.1,38.7,30.4,19.9,59,36,15,29.89,29.79,13,3,20,0.00
2013-10-10,62.0,49.9,43.1,45.2,40.7,32.5,93,73,33,29.89,29.74,20,4,30,0.69
2013-10-11,57.8,49.4,43.3,43.8,40.1,35.8,91,72,46,30.12,29.88,9,2,12,0.02
2013-10-12,63.5,49.1,39.7,40.0,37.0,31.8,86,66,32,30.18,30.03,16,6,18,0.00
2013-10-13,68.5,54.6,42.8,42.2,37.5,33.2,74,55,31,30.08,29.87,17,6,21,0.02
2013-10-14,51.0,45.4,42.7,42.9,40.6,38.4,93,83,65,30.20,29.98,14,4,20,0.31
2013-10-15,50.7,44.3,40.6,39.2,32.7,27.5,86,65,46,30.21,30.12,16,7,19,0.00
2013-10-16,52.1,42.4,34.4,29.7,26.2,22.8,71,54,32,30.25,30.16,14,5,17,0.00
2013-10-17,56.8,44.3,34.1,31.4,28.7,26.0,80,57,33,30.22,30.01,14,5,18,0.00
2013-10-18,53.3,45.1,38.5,33.2,26.5,20.3,68,50,28,30.26,30.05,12,5,22,0.00
2013-10-19,57.5,43.5,32.7,29.7,26.5,23.8,73,53,30,30.30,30.12,15,6,19,0.00
2013-10-20,59.5,46.3,36.6,31.6,28.6,24.9,71,52,27,30.14,29.99,15,6,18,0.00
2013-10-21,62.4,48.7,37.9,32.8,29.9,25.5,72,51,25,30.27,30.07,16,6,19,0.00
2013-10-22,64.4,48.4,36.7,31.9,29.5,27.6,70,50,27,30.35,30.20,16,6,20,0.00
2013-10-23,66.3,49.9,37.2,33.9,31.2,29.1,73,51,26,30.29,30.13,16,6,19,0.00
2013-10-24,67.9,50.9,38.5,35.7,31.3,27.6,70,49,24,30.26,30.13,15,6,21,0.00
2013-10-25,65.9,53.0,43.1,36.4,32.4,28.5,61,47,31,30.28,30.18,17,6,18,0.00
2013-10-26,66.7,51.4,39.1,36.8,33.1,28.8,76,52,29,30.39,30.24,12,5,16,0.00
2013-10-27,65.0,50.1,38.1,35.9,31.6,28.3,68,50,32,30.25,29.84,14,6,19,0.00
2013-10-28,67.4,56.5,41.6,34.3,27.1,18.8,69,37,17,29.84,29.68,26,7,35,0.00
2013-10-29,58.7,45.3,34.4,40.6,34.6,22.9,94,72,25,30.00,29.76,29,6,38,0.79
2013-10-30,45.5,39.7,36.8,39.2,36.2,33.7,95,87,71,30.04,29.95,11,1,26,0.18
2013-10-31,47.2,40.4,36.2,37.9,35.7,33.9,93,84,62,30.18,30.04,6,1,8,0.00